createdAt,value
2018-03-08T00:01:15.234Z,22.97
2018-03-08T00:03:43.919Z,26.13
2018-03-08T00:06:12.607Z,29.53
2018-03-08T00:08:41.273Z,26.33
2018-03-08T00:11:10.265Z,28.53
2018-03-08T00:13:38.907Z,29.77
2018-03-08T00:16:08.220Z,32.23
2018-03-08T00:18:37.263Z,33.63
2018-03-08T00:21:05.950Z,32.57
2018-03-08T00:23:34.637Z,32.10
2018-03-08T00:26:03.325Z,30.13
2018-03-08T00:28:32.008Z,29.10
2018-03-08T00:31:00.633Z,29.37
2018-03-08T00:33:30.296Z,32.10
2018-03-08T00:35:58.986Z,31.53
2018-03-08T00:38:27.612Z,31.93
2018-03-08T00:40:58.254Z,30.10
2018-03-08T00:43:26.847Z,31.70
2018-03-08T00:45:55.573Z,30.83
2018-03-08T00:48:24.308Z,30.73
2018-03-08T00:50:53.766Z,30.70
2018-03-08T00:53:22.452Z,29.63
2018-03-08T00:55:51.189Z,29.97
2018-03-08T00:58:20.636Z,30.23
2018-03-08T01:00:49.224Z,29.80
2018-03-08T01:03:18.316Z,30.50
2018-03-08T01:05:46.959Z,32.87
2018-03-08T01:08:15.687Z,31.70
2018-03-08T01:10:44.420Z,26.03
2018-03-08T01:13:13.837Z,20.00
2018-03-08T01:15:42.569Z,21.33
2018-03-08T01:18:11.297Z,24.80
2018-03-08T01:20:40.763Z,22.00
2018-03-08T01:23:09.312Z,28.53
2018-03-08T01:25:38.025Z,28.17
2018-03-08T01:28:06.667Z,31.97
2018-03-08T01:30:35.361Z,38.27
2018-03-08T01:33:04.081Z,34.30
2018-03-08T01:35:32.722Z,34.07
2018-03-08T01:38:01.355Z,32.57
2018-03-08T01:40:30.138Z,29.87
2018-03-08T01:42:58.728Z,31.77
2018-03-08T01:45:27.418Z,31.83
2018-03-08T01:47:56.097Z,34.17
2018-03-08T01:50:24.785Z,33.07
2018-03-08T01:52:53.471Z,32.00
2018-03-08T01:55:22.439Z,32.40
2018-03-08T01:57:51.150Z,29.87
2018-03-08T02:00:19.775Z,29.63
2018-03-08T02:02:49.442Z,31.03
2018-03-08T02:05:18.085Z,31.10
2018-03-08T02:07:46.716Z,30.47
2018-03-08T02:10:15.400Z,28.57
2018-03-08T02:12:44.086Z,28.30
2018-03-08T02:15:12.664Z,29.33
2018-03-08T02:17:41.348Z,30.67
2018-03-08T02:20:09.996Z,30.87
2018-03-08T02:22:38.719Z,32.20
2018-03-08T02:25:07.706Z,38.20
2018-03-08T02:27:36.399Z,54.53
2018-03-08T02:30:05.197Z,46.27
2018-03-08T02:32:34.168Z,54.43
2018-03-08T02:35:02.874Z,37.17
2018-03-08T02:37:31.449Z,26.13
2018-03-08T02:40:00.135Z,25.70
2018-03-08T02:42:28.822Z,24.27
2018-03-08T02:44:57.476Z,24.63
2018-03-08T02:47:26.806Z,23.77
2018-03-08T02:49:55.463Z,23.77
2018-03-08T02:52:24.186Z,25.30
2018-03-08T02:54:53.282Z,26.63
2018-03-08T02:57:21.857Z,28.50
2018-03-08T02:59:50.544Z,32.10
2018-03-08T03:02:19.727Z,31.97
2018-03-08T03:04:48.432Z,28.23
2018-03-08T03:07:17.018Z,26.43
2018-03-08T03:09:45.817Z,27.20
2018-03-08T03:12:15.970Z,27.10
2018-03-08T03:14:45.631Z,25.83
2018-03-08T03:17:14.417Z,24.83
2018-03-08T03:19:43.048Z,21.57
2018-03-08T03:22:12.566Z,20.53
2018-03-08T03:24:41.298Z,20.27
2018-03-08T03:27:09.987Z,20.57
2018-03-08T03:29:38.769Z,20.17
2018-03-08T03:32:07.453Z,21.13
2018-03-08T03:34:36.106Z,24.90
2018-03-08T03:37:04.919Z,20.63
2018-03-08T03:39:33.615Z,22.30
2018-03-08T03:42:02.257Z,20.83
2018-03-08T03:44:31.952Z,23.93
2018-03-08T03:47:01.413Z,21.23
2018-03-08T03:49:30.099Z,20.70
2018-03-08T03:51:58.892Z,22.63
2018-03-08T03:54:27.579Z,26.20
2018-03-08T03:56:57.186Z,22.60
2018-03-08T03:59:26.761Z,21.47
2018-03-08T04:01:55.399Z,19.70
2018-03-08T04:04:24.850Z,20.50
2018-03-08T04:06:53.889Z,16.67
2018-03-08T04:09:23.349Z,14.60
2018-03-08T04:11:52.034Z,12.97
2018-03-08T04:14:20.917Z,12.00
2018-03-08T04:16:49.561Z,11.57
2018-03-08T04:19:18.290Z,10.33
2018-03-08T04:21:47.246Z,11.73
2018-03-08T04:24:15.968Z,13.20
2018-03-08T04:26:44.517Z,12.97
2018-03-08T04:29:13.549Z,13.77
2018-03-08T04:31:42.193Z,15.00
2018-03-08T04:34:10.921Z,15.27
2018-03-08T04:36:39.655Z,16.33
2018-03-08T04:39:09.113Z,16.10
2018-03-08T04:41:37.736Z,14.00
2018-03-08T04:44:07.259Z,13.30
2018-03-08T04:46:35.984Z,13.10
2018-03-08T04:49:04.570Z,14.23
2018-03-08T04:51:33.512Z,16.33
2018-03-08T04:54:02.864Z,18.03
2018-03-08T04:56:31.498Z,15.93
2018-03-08T04:59:01.049Z,15.37
2018-03-08T05:01:29.744Z,26.40
2018-03-08T05:03:58.325Z,61.67
2018-03-08T05:06:27.115Z,22.93
2018-03-08T05:08:55.693Z,26.67
2018-03-08T05:11:24.379Z,41.33
2018-03-08T05:13:53.173Z,46.50
2018-03-08T05:16:21.813Z,45.40
2018-03-08T05:18:50.546Z,42.37
2018-03-08T05:21:19.148Z,40.27
2018-03-08T05:23:47.930Z,38.90
2018-03-08T05:26:17.416Z,28.30
2018-03-08T05:28:46.101Z,26.40
2018-03-08T05:31:14.787Z,25.47
2018-03-08T05:33:43.471Z,26.53
2018-03-08T05:36:12.256Z,22.23
2018-03-08T05:38:40.953Z,35.40
2018-03-08T05:41:09.639Z,40.30
2018-03-08T05:43:38.424Z,56.07
2018-03-08T05:46:07.110Z,60.23
2018-03-08T05:48:35.700Z,84.30
2018-03-08T05:51:04.373Z,78.43
2018-03-08T05:53:33.070Z,77.93
2018-03-08T05:56:01.854Z,76.27
2018-03-08T05:58:30.541Z,65.27
2018-03-08T06:00:59.189Z,78.93
2018-03-08T06:03:27.914Z,61.23
2018-03-08T06:05:56.904Z,60.17
2018-03-08T06:08:25.544Z,48.00
2018-03-08T06:10:54.276Z,44.13
2018-03-08T06:13:23.270Z,49.43
2018-03-08T06:15:51.956Z,39.90
2018-03-08T06:18:20.642Z,44.43
2018-03-08T06:20:49.325Z,54.40
2018-03-08T06:23:17.913Z,55.27
2018-03-08T06:25:46.599Z,53.43
2018-03-08T06:28:15.385Z,51.83
2018-03-08T06:30:44.133Z,53.33
2018-03-08T06:33:12.823Z,44.40
2018-03-08T06:35:41.816Z,41.50
2018-03-08T06:38:10.533Z,40.27
2018-03-08T06:40:39.219Z,50.83
2018-03-08T06:43:08.014Z,54.13
2018-03-08T06:45:36.700Z,72.63
2018-03-08T06:48:05.377Z,74.80
2018-03-08T06:50:34.224Z,80.47
2018-03-08T06:53:02.761Z,91.50
2018-03-08T06:55:31.332Z,69.80
2018-03-08T06:58:00.032Z,60.90
2018-03-08T07:00:28.706Z,51.37
2018-03-08T07:02:58.588Z,55.87
2018-03-08T07:05:27.174Z,53.50
2018-03-08T07:07:55.821Z,57.60
2018-03-08T07:10:24.593Z,53.67
2018-03-08T07:12:54.045Z,47.97
2018-03-08T07:15:22.679Z,50.43
2018-03-08T07:17:52.545Z,38.90
2018-03-08T07:20:21.132Z,29.30
2018-03-08T07:22:49.818Z,27.13
2018-03-08T07:25:18.702Z,34.30
2018-03-08T07:27:47.388Z,45.67
2018-03-08T07:30:16.037Z,31.03
2018-03-08T07:32:44.904Z,27.70
2018-03-08T07:35:14.369Z,40.67
2018-03-08T07:37:43.053Z,19.67
2018-03-08T07:40:12.009Z,29.27
2018-03-08T07:42:40.732Z,16.47
2018-03-08T07:45:09.418Z,18.83
2018-03-08T07:47:38.412Z,70.57
2018-03-08T07:50:07.096Z,18.60
2018-03-08T07:52:35.749Z,15.63
2018-03-08T07:55:04.513Z,35.90
2018-03-08T07:57:33.978Z,11.93
2018-03-08T08:00:02.681Z,15.40
2018-03-08T08:02:31.396Z,17.33
2018-03-08T08:05:18.712Z,16.73
2018-03-08T08:08:06.051Z,14.90
2018-03-08T08:10:35.500Z,17.63
2018-03-08T08:13:04.081Z,19.93
2018-03-08T08:15:33.177Z,19.27
2018-03-08T08:18:01.997Z,14.53
2018-03-08T08:20:30.649Z,16.00
2018-03-08T08:22:59.587Z,16.57
2018-03-08T08:25:29.052Z,16.53
2018-03-08T08:27:57.617Z,14.10
2018-03-08T08:30:26.412Z,16.57
2018-03-08T08:32:55.208Z,18.47
2018-03-08T08:35:23.895Z,20.00
2018-03-08T08:37:52.679Z,14.50
2018-03-08T08:40:21.364Z,15.20
2018-03-08T08:42:50.051Z,11.37
2018-03-08T08:45:18.846Z,13.93
2018-03-08T08:47:47.531Z,12.23
2018-03-08T08:50:16.217Z,9.43
2018-03-08T08:52:44.903Z,9.80
2018-03-08T08:55:13.588Z,10.07
2018-03-08T08:57:42.374Z,9.73
2018-03-08T09:00:11.517Z,11.10
2018-03-08T09:02:40.924Z,10.77
2018-03-08T09:05:10.373Z,9.80
2018-03-08T09:07:39.431Z,10.20
2018-03-08T09:10:08.099Z,10.80
2018-03-08T09:12:37.561Z,11.10
2018-03-08T09:15:06.653Z,11.50
2018-03-08T09:17:35.201Z,9.57
2018-03-08T09:20:03.875Z,12.17
2018-03-08T09:22:33.364Z,8.93
2018-03-08T09:25:02.834Z,9.70
2018-03-08T09:27:31.519Z,9.90
2018-03-08T09:30:00.610Z,10.23
2018-03-08T09:32:29.297Z,10.43
2018-03-08T09:34:57.960Z,9.60
2018-03-08T09:37:26.721Z,10.27
2018-03-08T09:39:56.177Z,10.50
2018-03-08T09:42:24.863Z,10.63
2018-03-08T09:44:53.805Z,9.70
2018-03-08T09:47:23.254Z,11.50
2018-03-08T09:49:51.890Z,12.50
2018-03-08T09:52:21.755Z,11.07
2018-03-08T09:54:50.442Z,10.57
2018-03-08T09:57:19.021Z,11.07
2018-03-08T09:59:47.912Z,9.33
2018-03-08T10:02:16.598Z,9.60
2018-03-08T10:04:45.190Z,9.97
2018-03-08T10:07:13.870Z,12.87
2018-03-08T10:09:42.558Z,10.10
2018-03-08T10:12:11.138Z,9.93
2018-03-08T10:14:39.929Z,9.33
2018-03-08T10:17:08.615Z,10.20
2018-03-08T10:19:37.257Z,9.23
2018-03-08T10:22:06.250Z,8.43
2018-03-08T10:24:34.980Z,11.40
2018-03-08T10:27:03.669Z,12.60
2018-03-08T10:29:32.679Z,9.43
2018-03-08T10:32:01.344Z,8.27
2018-03-08T10:34:30.043Z,10.07
2018-03-08T10:36:58.814Z,9.93
2018-03-08T10:41:56.701Z,9.57
2018-03-08T10:44:25.792Z,10.83
2018-03-08T10:46:55.269Z,9.10
2018-03-08T10:49:23.923Z,11.80
2018-03-08T10:51:52.915Z,7.30
2018-03-08T10:54:21.635Z,7.80
2018-03-08T10:56:50.221Z,11.93
2018-03-08T10:59:18.920Z,7.27
2018-03-08T11:02:04.385Z,7.10
2018-03-08T11:04:37.070Z,7.27
2018-03-08T11:07:05.759Z,6.80
2018-03-08T11:09:34.338Z,8.97
2018-03-08T11:12:03.064Z,7.23
2018-03-08T11:14:32.527Z,8.87
2018-03-08T11:17:01.216Z,6.67
2018-03-08T11:19:30.304Z,6.20
2018-03-08T11:21:58.957Z,7.30
2018-03-08T11:24:27.676Z,8.93
2018-03-08T11:26:56.361Z,6.80
2018-03-08T11:29:25.048Z,6.37
2018-03-08T11:31:53.733Z,17.10
2018-03-08T11:34:22.727Z,6.03
2018-03-08T11:36:51.412Z,6.03
2018-03-08T11:39:19.968Z,5.90
2018-03-08T11:41:48.951Z,6.20
2018-03-08T11:44:17.679Z,8.27
2018-03-08T11:46:46.364Z,10.17
2018-03-08T11:49:15.149Z,12.93
2018-03-08T11:51:43.834Z,7.43
2018-03-08T11:54:12.467Z,8.47
2018-03-08T11:56:41.985Z,7.83
2018-03-08T11:59:10.715Z,9.70
2018-03-08T12:01:39.608Z,9.50
2018-03-08T12:04:08.339Z,8.90
2018-03-08T12:06:38.204Z,7.47
2018-03-08T12:09:06.895Z,8.13
2018-03-08T12:11:35.681Z,8.20
2018-03-08T12:14:04.366Z,7.90
2018-03-08T12:16:32.947Z,8.60
2018-03-08T12:19:01.629Z,7.87
2018-03-08T12:21:30.324Z,8.40
2018-03-08T12:23:59.009Z,9.40
2018-03-08T12:26:27.852Z,8.03
2018-03-08T12:28:56.579Z,8.40
2018-03-08T12:31:25.213Z,8.97
2018-03-08T12:33:54.681Z,8.17
2018-03-08T12:36:23.228Z,7.90
2018-03-08T12:38:51.937Z,9.50
2018-03-08T12:41:21.852Z,9.73
2018-03-08T12:43:50.442Z,13.03
2018-03-08T12:46:19.119Z,9.67
2018-03-08T12:48:47.926Z,8.03
2018-03-08T12:51:17.358Z,7.50
2018-03-08T12:53:46.817Z,11.80
2018-03-08T12:56:15.668Z,7.93
2018-03-08T12:58:44.398Z,8.73
2018-03-08T13:01:13.083Z,7.83
2018-03-08T13:03:42.817Z,8.40
2018-03-08T13:06:11.584Z,8.33
2018-03-08T13:08:40.308Z,11.10
2018-03-08T13:11:09.970Z,9.43
2018-03-08T13:13:38.662Z,10.67
2018-03-08T13:16:08.134Z,10.57
2018-03-08T13:18:36.864Z,11.30
2018-03-08T13:21:05.549Z,9.30
2018-03-08T13:23:34.191Z,9.80
2018-03-08T13:26:02.985Z,11.87
2018-03-08T13:28:31.606Z,10.73
2018-03-08T13:31:00.194Z,10.20
2018-03-08T13:33:29.078Z,13.03
2018-03-08T13:35:57.732Z,11.13
2018-03-08T13:38:26.449Z,12.83
2018-03-08T13:40:55.651Z,11.40
2018-03-08T13:43:24.337Z,14.07
2018-03-08T13:45:53.078Z,15.77
2018-03-08T13:48:21.717Z,13.83
2018-03-08T13:50:50.439Z,14.77
2018-03-08T13:53:19.902Z,15.13
2018-03-08T13:55:48.876Z,14.63
2018-03-08T13:58:17.430Z,12.83
2018-03-08T14:00:45.980Z,12.67
2018-03-08T14:03:14.592Z,14.07
2018-03-08T14:05:43.183Z,14.00
2018-03-08T14:08:11.746Z,14.47
2018-03-08T14:10:41.109Z,11.50
2018-03-08T14:13:09.662Z,14.13
2018-03-08T14:15:38.233Z,9.87
2018-03-08T14:18:07.266Z,10.50
2018-03-08T14:20:36.582Z,13.57
2018-03-08T14:23:05.156Z,14.03
2018-03-08T14:25:33.937Z,12.40
2018-03-08T14:28:02.493Z,14.57
2018-03-08T14:30:31.105Z,13.90
2018-03-08T14:33:00.209Z,14.50
2018-03-08T14:35:28.890Z,13.10
2018-03-08T14:37:57.576Z,13.03
2018-03-08T14:40:26.261Z,15.03
2018-03-08T14:42:54.946Z,13.47
2018-03-08T14:45:23.634Z,14.83
2018-03-08T14:47:52.327Z,18.13
2018-03-08T14:50:21.104Z,16.33
2018-03-08T14:52:49.653Z,15.00
2018-03-08T14:55:18.564Z,19.07
2018-03-08T14:57:47.112Z,15.27
2018-03-08T15:00:15.666Z,14.27
2018-03-08T15:02:44.364Z,14.57
2018-03-08T15:05:13.685Z,16.87
2018-03-08T15:07:42.248Z,16.77
2018-03-08T15:10:10.954Z,15.03
2018-03-08T15:12:40.393Z,23.60
2018-03-08T15:15:09.091Z,13.57
2018-03-08T15:17:37.788Z,13.27
2018-03-08T15:20:06.561Z,14.83
2018-03-08T15:22:35.248Z,12.00
2018-03-08T15:25:03.940Z,7.60
2018-03-08T15:27:32.521Z,7.10
2018-03-08T15:30:01.207Z,22.10
2018-03-08T15:32:29.991Z,9.07
2018-03-08T15:34:58.680Z,12.97
2018-03-08T15:37:27.361Z,24.07
2018-03-08T15:39:56.098Z,15.07
2018-03-08T15:42:25.558Z,9.93
2018-03-08T15:44:54.243Z,9.83
2018-03-08T15:47:23.244Z,8.13
2018-03-08T15:49:51.898Z,11.10
2018-03-08T15:52:20.597Z,12.80
2018-03-08T15:54:49.393Z,10.47
2018-03-08T15:57:17.969Z,16.80
2018-03-08T15:59:46.655Z,16.13
2018-03-08T16:02:15.757Z,13.33
2018-03-08T16:04:44.308Z,15.27
2018-03-08T16:10:37.002Z,13.17
2018-03-08T16:13:05.897Z,13.10
2018-03-08T16:15:34.582Z,18.87
2018-03-08T16:18:03.136Z,16.80
2018-03-08T16:20:31.959Z,21.43
2018-03-08T16:23:00.640Z,26.30
2018-03-08T16:25:29.325Z,32.17
2018-03-08T16:27:58.108Z,33.27
2018-03-08T16:30:26.652Z,31.97
2018-03-08T16:32:55.201Z,32.40
2018-03-08T16:35:23.938Z,30.33
2018-03-08T16:37:52.545Z,36.47
2018-03-08T16:40:21.089Z,34.70
2018-03-08T16:42:50.076Z,34.53
2018-03-08T16:45:19.525Z,25.30
2018-03-08T16:47:48.210Z,21.13
2018-03-08T16:50:16.997Z,23.07
2018-03-08T16:52:45.544Z,16.73
2018-03-08T16:55:14.093Z,14.67
2018-03-08T16:57:43.482Z,13.80
2018-03-08T17:00:12.200Z,11.50
2018-03-08T17:02:41.513Z,6.87
2018-03-08T17:05:10.226Z,16.20
2018-03-08T17:07:38.796Z,19.47
2018-03-08T17:10:07.427Z,26.60
2018-03-08T17:12:36.540Z,24.13
2018-03-08T17:15:05.212Z,32.83
2018-03-08T17:17:33.942Z,28.70
2018-03-08T17:20:02.837Z,18.30
2018-03-08T17:22:31.524Z,18.07
2018-03-08T17:25:00.222Z,13.23
2018-03-08T17:27:28.997Z,12.23
2018-03-08T17:29:57.679Z,13.77
2018-03-08T17:32:26.331Z,18.57
2018-03-08T17:34:55.200Z,28.90
2018-03-08T17:37:24.663Z,34.50
2018-03-08T17:39:53.344Z,35.27
2018-03-08T17:42:22.208Z,27.90
2018-03-08T17:44:50.872Z,26.80
2018-03-08T17:47:20.326Z,26.47
2018-03-08T17:49:49.309Z,33.10
2018-03-08T17:52:18.000Z,30.70
2018-03-08T17:54:46.687Z,32.73
2018-03-08T17:57:15.636Z,44.87
2018-03-08T17:59:44.366Z,39.07
2018-03-08T18:02:13.765Z,25.80
2018-03-08T18:04:42.518Z,31.27
2018-03-08T18:07:11.247Z,18.67
2018-03-08T18:09:39.934Z,19.73
2018-03-08T18:12:08.926Z,25.83
2018-03-08T18:14:37.611Z,56.57
2018-03-08T18:17:06.297Z,31.40
2018-03-08T18:19:35.081Z,27.57
2018-03-08T18:22:03.768Z,27.33
2018-03-08T18:24:32.409Z,37.10
2018-03-08T18:27:01.348Z,36.10
2018-03-08T18:29:30.131Z,32.80
2018-03-08T18:31:58.716Z,38.73
2018-03-08T18:34:27.781Z,34.13
2018-03-08T18:36:56.497Z,33.73
2018-03-08T18:39:25.182Z,46.43
2018-03-08T18:41:53.977Z,24.67
2018-03-08T18:44:22.550Z,19.80
2018-03-08T18:46:51.097Z,24.43
2018-03-08T18:49:19.693Z,24.90
2018-03-08T18:51:48.244Z,18.30
2018-03-08T18:54:16.792Z,20.97
2018-03-08T18:56:46.159Z,23.57
2018-03-08T18:59:14.749Z,21.93
2018-03-08T19:01:43.340Z,18.47
2018-03-08T19:04:12.729Z,10.70
2018-03-08T19:06:41.282Z,10.03
2018-03-08T19:09:09.833Z,24.93
2018-03-08T19:11:39.348Z,14.03
2018-03-08T19:14:07.897Z,13.60
2018-03-08T19:16:36.464Z,19.70
2018-03-08T19:19:05.349Z,18.00
2018-03-08T19:21:33.909Z,19.33
2018-03-08T19:24:02.461Z,24.70
2018-03-08T19:26:31.824Z,16.40
2018-03-08T19:29:00.394Z,15.93
2018-03-08T19:31:28.942Z,11.97
2018-03-08T19:33:57.870Z,12.30
2018-03-08T19:36:26.417Z,15.40
2018-03-08T19:38:54.986Z,12.83
2018-03-08T19:41:24.498Z,13.00
2018-03-08T19:43:53.048Z,16.57
2018-03-08T19:46:21.597Z,19.17
2018-03-08T19:48:50.195Z,18.83
2018-03-08T19:51:18.744Z,17.03
2018-03-08T19:53:47.289Z,16.50
2018-03-08T19:56:16.657Z,17.40
2018-03-08T19:58:45.210Z,15.73
2018-03-08T20:01:13.761Z,16.47
2018-03-08T20:03:43.322Z,15.93
2018-03-08T20:06:11.873Z,16.03
2018-03-08T20:08:40.444Z,26.93
2018-03-08T20:11:09.818Z,34.50
2018-03-08T20:13:38.369Z,16.47
2018-03-08T20:16:06.955Z,17.80
2018-03-08T20:18:35.712Z,16.67
2018-03-08T20:21:04.272Z,16.83
2018-03-08T20:23:32.832Z,14.57
2018-03-08T20:26:02.293Z,20.60
2018-03-08T20:28:30.840Z,20.00
2018-03-08T20:30:59.392Z,17.57
2018-03-08T20:33:27.985Z,18.97
2018-03-08T20:35:57.298Z,18.03
2018-03-08T20:38:25.849Z,18.93
2018-03-08T20:40:54.611Z,17.07
2018-03-08T20:43:23.170Z,19.37
2018-03-08T20:45:51.778Z,22.50
2018-03-08T20:48:20.368Z,33.57
2018-03-08T20:50:48.912Z,23.60
2018-03-08T20:53:17.458Z,33.13
2018-03-08T20:55:47.044Z,29.60
2018-03-08T20:58:15.615Z,37.03
2018-03-08T21:00:44.189Z,31.13
2018-03-08T21:03:12.925Z,26.27
2018-03-08T21:05:41.474Z,41.07
2018-03-08T21:08:10.016Z,30.27
2018-03-08T21:10:38.612Z,24.63
2018-03-08T21:13:07.171Z,16.13
2018-03-08T21:15:35.729Z,15.33
2018-03-08T21:18:04.365Z,15.57
2018-03-08T21:20:32.913Z,17.27
2018-03-08T21:23:02.224Z,16.10
2018-03-08T21:25:31.688Z,18.53
2018-03-08T21:28:01.004Z,21.90
2018-03-08T21:30:29.561Z,16.70
2018-03-08T21:32:58.347Z,13.77
2018-03-08T21:35:26.893Z,12.50
2018-03-08T21:37:55.440Z,13.30
2018-03-08T21:40:24.043Z,11.70
2018-03-08T21:42:53.353Z,15.57
2018-03-08T21:45:21.906Z,10.20
2018-03-08T21:47:50.771Z,11.00
2018-03-08T21:50:20.086Z,11.33
2018-03-08T21:52:48.637Z,11.00
2018-03-08T21:55:17.232Z,10.87
2018-03-08T21:57:45.776Z,10.43
2018-03-08T22:00:14.325Z,26.97
2018-03-08T22:02:42.924Z,19.80
2018-03-08T22:05:12.240Z,38.50
2018-03-08T22:07:41.552Z,50.87
2018-03-08T22:10:10.248Z,48.40
2018-03-08T22:12:38.801Z,56.83
2018-03-08T22:15:08.111Z,69.90
2018-03-08T22:17:36.737Z,59.87
2018-03-08T22:20:05.325Z,43.57
2018-03-08T22:22:33.873Z,34.57
2018-03-08T22:25:02.472Z,50.00
2018-03-08T22:27:31.031Z,64.90
2018-03-08T22:29:59.620Z,65.47
2018-03-08T22:32:28.224Z,72.67
2018-03-08T22:34:56.776Z,53.33
2018-03-08T22:37:26.093Z,21.93
2018-03-08T22:39:54.702Z,18.83
2018-03-08T22:42:23.245Z,19.00
2018-03-08T22:44:51.793Z,23.57
2018-03-08T22:47:20.389Z,28.90
2018-03-08T22:49:49.708Z,19.67
2018-03-08T22:52:19.021Z,33.43
2018-03-08T22:54:47.889Z,22.77
2018-03-08T22:57:17.200Z,16.07
2018-03-08T22:59:46.513Z,20.37
2018-03-08T23:02:16.036Z,29.50
2018-03-08T23:04:44.593Z,24.77
2018-03-08T23:07:13.144Z,18.77
2018-03-08T23:09:41.833Z,42.63
2018-03-08T23:12:10.382Z,27.13
2018-03-08T23:14:38.924Z,13.50
2018-03-08T23:17:08.464Z,8.53
2018-03-08T23:19:37.010Z,8.70
2018-03-08T23:22:05.646Z,23.03
2018-03-08T23:24:34.620Z,18.77
2018-03-08T23:27:03.192Z,17.77
2018-03-08T23:29:31.736Z,23.27
2018-03-08T23:32:01.410Z,23.90
2018-03-08T23:34:29.957Z,10.27
2018-03-08T23:36:58.508Z,10.50
2018-03-08T23:39:27.104Z,12.70
2018-03-08T23:41:55.847Z,11.00
2018-03-08T23:44:24.400Z,7.00
2018-03-08T23:46:53.001Z,7.57
2018-03-08T23:49:21.548Z,8.07
2018-03-08T23:51:50.859Z,9.17
2018-03-08T23:54:19.445Z,7.17
2018-03-08T23:56:47.984Z,9.73
2018-03-08T23:59:16.537Z,7.70
